Terminal Aerodrome Forecast
Issued by NWS Brownsville, TX

Home | Current Version | Previous Version | Text Only | Print | Product List | Glossary On
Versions: 1 2 3 4 5 6 7 8 9 10 11 12 13
000
FTUS44 KBRO 252300
TAFBRO
TAF
KBRO 252323Z 2600/2624 32005KT P6SM BKN200
     FM260100 34002KT P6SM BKN200
     FM261700 05007KT P6SM SKC=

USA.gov is the U.S. government's official web portal to all federal, state and local government web resources and services.